createdAt,value
2018-12-22T00:02:44.617Z,100.00
2018-12-22T00:05:48.059Z,100.00
2018-12-22T00:08:51.667Z,100.00
2018-12-22T00:11:55.300Z,100.00
2018-12-22T00:14:58.856Z,100.00
2018-12-22T00:18:02.274Z,100.00
2018-12-22T00:21:05.770Z,100.00
2018-12-22T00:24:09.263Z,100.00
2018-12-22T00:27:12.783Z,100.00
2018-12-22T00:30:16.309Z,100.00
2018-12-22T00:33:19.931Z,100.00
2018-12-22T00:36:23.405Z,100.00
2018-12-22T00:39:26.995Z,100.00
2018-12-22T00:42:30.506Z,100.00
2018-12-22T00:45:34.107Z,100.00
2018-12-22T00:48:37.704Z,100.00
2018-12-22T00:51:41.194Z,100.00
2018-12-22T00:54:44.724Z,100.00
2018-12-22T00:57:48.312Z,100.00
2018-12-22T01:00:51.837Z,100.00
2018-12-22T01:03:55.477Z,100.00
2018-12-22T01:06:59.079Z,100.00
2018-12-22T01:10:03.712Z,100.00
2018-12-22T01:13:07.331Z,100.00
2018-12-22T01:16:10.780Z,100.00
2018-12-22T01:19:14.289Z,100.00
2018-12-22T01:22:17.790Z,100.00
2018-12-22T01:25:21.435Z,100.00
2018-12-22T01:28:24.983Z,100.00
2018-12-22T01:31:28.421Z,100.00
2018-12-22T01:34:32.098Z,100.00
2018-12-22T01:37:35.652Z,100.00
2018-12-22T01:40:39.184Z,100.00
2018-12-22T01:43:42.625Z,100.00
2018-12-22T01:46:46.211Z,100.00
2018-12-22T01:49:49.706Z,100.00
2018-12-22T01:52:53.274Z,100.00
2018-12-22T01:55:56.814Z,100.00
2018-12-22T01:59:00.343Z,100.00
2018-12-22T02:02:03.983Z,100.00
2018-12-22T02:05:07.538Z,100.00
2018-12-22T02:08:10.970Z,100.00
2018-12-22T02:11:14.505Z,100.00
2018-12-22T02:14:18.006Z,100.00
2018-12-22T02:17:21.569Z,100.00
2018-12-22T02:20:25.157Z,100.00
2018-12-22T02:23:28.678Z,100.00
2018-12-22T02:26:32.248Z,100.00
2018-12-22T02:29:35.754Z,100.00
2018-12-22T02:32:39.185Z,100.00
2018-12-22T02:35:42.767Z,100.00
2018-12-22T02:38:46.148Z,100.00
2018-12-22T02:41:49.656Z,100.00
2018-12-22T02:44:53.155Z,100.00
2018-12-22T02:47:56.695Z,100.00
2018-12-22T02:51:00.181Z,100.00
2018-12-22T02:54:03.654Z,100.00
2018-12-22T02:57:07.078Z,100.00
2018-12-22T03:00:11.426Z,100.00
2018-12-22T03:03:14.988Z,100.00
2018-12-22T03:06:18.499Z,100.00
2018-12-22T03:09:23.015Z,100.00
2018-12-22T03:12:26.457Z,100.00
2018-12-22T03:15:29.962Z,100.00
2018-12-22T03:18:33.414Z,100.00
2018-12-22T03:21:36.880Z,100.00
2018-12-22T03:24:40.425Z,100.00
2018-12-22T03:27:43.944Z,100.00
2018-12-22T03:30:47.468Z,100.00
2018-12-22T03:33:50.934Z,100.00
2018-12-22T03:36:54.435Z,100.00
2018-12-22T03:39:57.938Z,100.00
2018-12-22T03:43:01.434Z,100.00
2018-12-22T03:46:04.898Z,100.00
2018-12-22T03:49:08.357Z,100.00
2018-12-22T03:52:11.829Z,100.00
2018-12-22T03:55:15.383Z,100.00
2018-12-22T03:58:18.847Z,100.00
2018-12-22T04:01:22.254Z,100.00
2018-12-22T04:04:25.669Z,100.00
2018-12-22T04:07:29.113Z,100.00
2018-12-22T04:10:32.598Z,100.00
2018-12-22T04:13:36.530Z,100.00
2018-12-22T04:16:40.077Z,100.00
2018-12-22T04:19:43.494Z,100.00
2018-12-22T04:22:47.073Z,100.00
2018-12-22T04:25:50.575Z,100.00
2018-12-22T04:28:54.013Z,100.00
2018-12-22T04:31:57.472Z,100.00
2018-12-22T04:35:00.993Z,100.00
2018-12-22T04:38:04.664Z,100.00
2018-12-22T04:41:08.202Z,100.00
2018-12-22T04:44:11.735Z,100.00
2018-12-22T04:47:15.436Z,100.00
2018-12-22T04:50:19.047Z,100.00
2018-12-22T04:53:22.587Z,100.00
2018-12-22T04:56:26.257Z,100.00
2018-12-22T04:59:29.743Z,100.00
2018-12-22T05:02:33.338Z,100.00
2018-12-22T05:05:36.931Z,100.00
2018-12-22T05:08:40.445Z,100.00
2018-12-22T05:11:44.455Z,100.00
2018-12-22T05:14:48.031Z,100.00
2018-12-22T05:17:51.682Z,100.00
2018-12-22T05:20:55.308Z,100.00
2018-12-22T05:23:58.977Z,100.00
2018-12-22T05:27:02.545Z,100.00
2018-12-22T05:30:07.364Z,100.00
2018-12-22T05:33:10.924Z,100.00
2018-12-22T05:36:14.525Z,100.00
2018-12-22T05:39:19.125Z,100.00
2018-12-22T05:42:22.816Z,100.00
2018-12-22T05:45:26.360Z,100.00
2018-12-22T05:48:30.183Z,100.00
2018-12-22T05:51:33.674Z,100.00
2018-12-22T05:54:37.262Z,100.00
2018-12-22T05:57:40.892Z,100.00
2018-12-22T06:00:44.511Z,100.00
2018-12-22T06:03:47.986Z,100.00
2018-12-22T06:06:51.518Z,100.00
2018-12-22T06:09:55.062Z,100.00
2018-12-22T06:12:58.573Z,100.00
2018-12-22T06:16:02.150Z,100.00
2018-12-22T06:19:05.742Z,100.00
2018-12-22T06:22:09.315Z,100.00
2018-12-22T06:25:14.019Z,100.00
2018-12-22T06:28:17.537Z,100.00
2018-12-22T06:31:21.081Z,100.00
2018-12-22T06:34:24.705Z,100.00
2018-12-22T06:37:28.179Z,100.00
2018-12-22T06:40:31.778Z,100.00
2018-12-22T06:43:36.291Z,100.00
2018-12-22T06:46:41.416Z,100.00
2018-12-22T06:49:44.918Z,100.00
2018-12-22T06:52:48.436Z,100.00
2018-12-22T06:55:52.017Z,100.00
2018-12-22T06:58:56.680Z,100.00
2018-12-22T07:02:00.538Z,100.00
2018-12-22T07:05:04.137Z,100.00
2018-12-22T07:08:07.719Z,100.00
2018-12-22T07:11:11.289Z,100.00
2018-12-22T07:14:14.923Z,100.00
2018-12-22T07:17:18.551Z,100.00
2018-12-22T07:20:22.117Z,100.00
2018-12-22T07:23:25.733Z,100.00
2018-12-22T07:26:29.293Z,100.00
2018-12-22T07:29:33.928Z,100.00
2018-12-22T07:32:37.542Z,100.00
2018-12-22T07:35:41.078Z,99.17
2018-12-22T07:38:44.659Z,100.00
2018-12-22T07:41:48.271Z,99.99
2018-12-22T07:44:52.847Z,100.00
2018-12-22T07:47:56.435Z,99.34
2018-12-22T07:51:01.028Z,97.71
2018-12-22T07:54:04.645Z,96.62
2018-12-22T07:57:08.190Z,95.98
2018-12-22T08:00:11.774Z,95.83
2018-12-22T08:03:15.424Z,94.47
2018-12-22T08:06:18.873Z,92.74
2018-12-22T08:09:22.863Z,91.81
2018-12-22T08:12:26.394Z,89.42
2018-12-22T08:15:29.999Z,89.52
2018-12-22T08:18:33.492Z,88.36
2018-12-22T08:21:37.145Z,89.25
2018-12-22T08:24:40.783Z,89.96
2018-12-22T08:27:44.310Z,89.75
2018-12-22T08:30:47.834Z,89.50
2018-12-22T08:33:51.534Z,90.47
2018-12-22T08:36:55.122Z,91.12
2018-12-22T08:39:58.644Z,92.48
2018-12-22T08:43:02.579Z,92.33
2018-12-22T08:46:06.270Z,92.27
2018-12-22T08:49:09.822Z,91.96
2018-12-22T08:52:13.395Z,89.78
2018-12-22T08:55:16.963Z,88.96
2018-12-22T08:58:20.638Z,87.34
2018-12-22T09:01:24.071Z,86.78
2018-12-22T09:04:27.662Z,86.45
2018-12-22T09:07:31.289Z,85.97
2018-12-22T09:10:34.916Z,86.57
2018-12-22T09:13:38.689Z,85.63
2018-12-22T09:16:42.321Z,85.82
2018-12-22T09:19:45.854Z,85.81
2018-12-22T09:22:49.312Z,86.07
2018-12-22T09:25:52.831Z,86.30
2018-12-22T09:28:56.302Z,85.50
2018-12-22T09:31:59.924Z,85.13
2018-12-22T09:35:03.582Z,84.40
2018-12-22T09:38:07.017Z,84.88
2018-12-22T09:41:10.669Z,84.03
2018-12-22T09:44:14.126Z,84.02
2018-12-22T09:47:17.759Z,83.62
2018-12-22T09:50:21.331Z,82.87
2018-12-22T09:53:24.741Z,83.54
2018-12-22T09:56:28.344Z,83.51
2018-12-22T09:59:31.726Z,83.96
2018-12-22T10:02:35.142Z,83.90
2018-12-22T10:05:43.385Z,83.94
2018-12-22T10:08:46.845Z,82.96
2018-12-22T10:11:50.294Z,83.83
2018-12-22T10:14:53.853Z,83.82
2018-12-22T10:17:57.276Z,84.53
2018-12-22T10:21:00.757Z,85.18
2018-12-22T10:24:04.205Z,83.73
2018-12-22T10:27:07.999Z,83.71
2018-12-22T10:30:15.946Z,83.80
2018-12-22T10:33:19.420Z,83.20
2018-12-22T10:36:22.994Z,83.76
2018-12-22T10:39:26.428Z,83.68
2018-12-22T10:42:29.905Z,82.50
2018-12-22T10:45:33.397Z,83.01
2018-12-22T10:48:36.835Z,83.53
2018-12-22T10:51:40.285Z,83.42
2018-12-22T10:54:43.692Z,83.47
2018-12-22T10:57:47.091Z,83.65
2018-12-22T11:00:50.511Z,81.02
2018-12-22T11:03:53.998Z,83.39
2018-12-22T11:06:57.467Z,84.33
2018-12-22T11:10:01.173Z,84.17
2018-12-22T11:13:04.731Z,83.01
2018-12-22T11:16:08.329Z,83.82
2018-12-22T11:19:12.833Z,84.41
2018-12-22T11:22:16.227Z,84.88
2018-12-22T11:25:22.509Z,85.62
2018-12-22T11:28:25.979Z,85.75
2018-12-22T11:31:35.024Z,85.85
2018-12-22T11:34:33.078Z,86.39
2018-12-22T11:37:36.596Z,85.58
2018-12-22T11:40:40.001Z,85.17
2018-12-22T11:43:43.387Z,82.53
2018-12-22T11:46:49.081Z,80.74
2018-12-22T11:49:53.353Z,81.19
2018-12-22T11:52:56.824Z,80.89
2018-12-22T11:56:00.415Z,81.86
2018-12-22T11:59:03.908Z,83.20
2018-12-22T12:02:09.861Z,85.03
2018-12-22T12:05:11.510Z,86.82
2018-12-22T12:08:16.888Z,88.56
2018-12-22T12:11:20.266Z,89.06
2018-12-22T12:14:23.692Z,87.93
2018-12-22T12:17:51.225Z,85.24
2018-12-22T12:20:55.641Z,82.55
2018-12-22T12:24:00.472Z,79.60
2018-12-22T12:27:02.680Z,78.59
2018-12-22T12:30:08.817Z,77.60
2018-12-22T12:33:12.211Z,76.86
2018-12-22T12:36:15.675Z,76.53
2018-12-22T12:39:19.212Z,77.35
2018-12-22T12:42:22.619Z,77.76
2018-12-22T12:45:26.197Z,78.02
2018-12-22T12:48:29.672Z,79.04
2018-12-22T12:51:34.112Z,79.07
2018-12-22T12:54:37.557Z,80.22
2018-12-22T12:57:41.880Z,80.71
2018-12-22T13:00:47.088Z,81.52
2018-12-22T13:03:51.179Z,81.95
2018-12-22T13:06:55.077Z,82.03
2018-12-22T13:09:59.043Z,82.51
2018-12-22T13:13:15.131Z,82.76
2018-12-22T13:16:19.023Z,82.31
2018-12-22T13:19:22.868Z,82.53
2018-12-22T13:22:27.116Z,82.49
2018-12-22T13:25:30.891Z,82.71
2018-12-22T13:28:34.933Z,82.45
2018-12-22T13:31:38.874Z,82.54
2018-12-22T13:34:42.462Z,82.58
2018-12-22T13:37:45.949Z,82.38
2018-12-22T13:40:49.546Z,82.93
2018-12-22T13:43:53.267Z,82.82
2018-12-22T13:46:56.833Z,83.48
2018-12-22T13:50:00.787Z,83.84
2018-12-22T13:53:04.331Z,84.13
2018-12-22T13:56:07.922Z,84.71
2018-12-22T13:59:11.401Z,84.79
2018-12-22T14:02:18.299Z,85.30
2018-12-22T14:05:21.283Z,85.41
2018-12-22T14:08:25.078Z,85.98
2018-12-22T14:11:29.619Z,86.64
2018-12-22T14:14:35.869Z,86.69
2018-12-22T14:18:19.895Z,86.07
2018-12-22T14:21:23.588Z,86.67
2018-12-22T14:24:33.926Z,88.44
2018-12-22T14:27:37.525Z,88.53
2018-12-22T14:30:41.172Z,90.52
2018-12-22T14:33:45.501Z,92.08
2018-12-22T14:36:49.139Z,91.09
2018-12-22T14:39:52.769Z,89.76
2018-12-22T14:42:56.344Z,93.29
2018-12-22T14:46:00.223Z,93.51
2018-12-22T14:49:03.765Z,94.57
2018-12-22T14:52:07.380Z,95.01
2018-12-22T14:55:11.065Z,90.63
2018-12-22T14:58:20.193Z,89.84
2018-12-22T15:01:23.870Z,88.82
2018-12-22T15:04:27.489Z,88.24
2018-12-22T15:07:31.013Z,88.09
2018-12-22T15:10:34.546Z,88.19
2018-12-22T15:13:38.293Z,87.70
2018-12-22T15:16:41.827Z,88.25
2018-12-22T15:19:45.425Z,88.06
2018-12-22T15:22:49.076Z,88.35
2018-12-22T15:25:52.674Z,88.19
2018-12-22T15:28:56.248Z,88.05
2018-12-22T15:31:59.887Z,88.06
2018-12-22T15:35:03.367Z,88.10
2018-12-22T15:38:07.056Z,88.29
2018-12-22T15:41:10.782Z,88.42
2018-12-22T15:44:14.301Z,88.08
2018-12-22T15:47:17.911Z,88.15
2018-12-22T15:50:23.329Z,89.41
2018-12-22T15:53:26.925Z,91.43
2018-12-22T15:56:30.563Z,93.21
2018-12-22T15:59:34.457Z,94.67
2018-12-22T16:02:38.628Z,95.24
2018-12-22T16:05:42.465Z,94.57
2018-12-22T16:08:46.334Z,94.86
2018-12-22T16:11:50.091Z,95.44
2018-12-22T16:14:53.690Z,96.04
2018-12-22T16:17:57.627Z,96.98
2018-12-22T16:21:01.212Z,97.37
2018-12-22T16:24:04.860Z,97.45
2018-12-22T16:27:08.442Z,96.62
2018-12-22T16:30:20.346Z,94.27
2018-12-22T16:33:24.004Z,93.99
2018-12-22T16:36:27.816Z,93.93
2018-12-22T16:39:31.449Z,92.48
2018-12-22T16:42:34.980Z,93.22
2018-12-22T16:45:41.635Z,92.84
2018-12-22T16:48:46.698Z,91.86
2018-12-22T16:51:50.403Z,90.44
2018-12-22T16:54:54.269Z,89.09
2018-12-22T16:58:05.283Z,89.21
2018-12-22T17:02:25.845Z,89.56
2018-12-22T17:05:29.969Z,89.70
2018-12-22T17:08:34.350Z,90.08
2018-12-22T17:11:38.097Z,90.35
2018-12-22T17:14:42.015Z,90.77
2018-12-22T17:17:46.363Z,90.10
2018-12-22T17:20:54.789Z,89.45
2018-12-22T17:24:09.567Z,89.81
2018-12-22T17:27:13.204Z,90.53
2018-12-22T17:30:16.821Z,90.31
2018-12-22T17:33:20.663Z,91.01
2018-12-22T17:36:25.483Z,90.62
2018-12-22T17:39:36.559Z,90.54
2018-12-22T17:42:32.114Z,90.16
2018-12-22T17:45:35.861Z,90.57
2018-12-22T17:48:39.470Z,90.65
2018-12-22T17:51:43.027Z,91.16
2018-12-22T17:54:46.487Z,91.15
2018-12-22T17:57:50.086Z,91.06
2018-12-22T18:00:53.508Z,91.41
2018-12-22T18:03:56.954Z,91.31
2018-12-22T18:07:00.507Z,92.29
2018-12-22T18:10:04.321Z,92.72
2018-12-22T18:13:07.822Z,93.64
2018-12-22T18:16:11.205Z,93.75
2018-12-22T18:19:15.033Z,95.18
2018-12-22T18:22:18.512Z,95.58
2018-12-22T18:25:22.112Z,96.74
2018-12-22T18:28:26.794Z,98.19
2018-12-22T18:31:30.277Z,99.07
2018-12-22T18:34:33.971Z,100.00
2018-12-22T18:37:37.386Z,100.00
2018-12-22T18:40:41.921Z,100.00
2018-12-22T18:43:45.622Z,100.00
2018-12-22T18:46:49.047Z,100.00
2018-12-22T18:49:52.423Z,100.00
2018-12-22T18:52:55.897Z,100.00
2018-12-22T18:55:59.450Z,100.00
2018-12-22T18:59:02.976Z,100.00
2018-12-22T19:02:06.649Z,100.00
2018-12-22T19:05:10.223Z,100.00
2018-12-22T19:08:15.644Z,100.00
2018-12-22T19:11:21.360Z,100.00
2018-12-22T19:14:24.810Z,99.90
2018-12-22T19:17:28.339Z,98.79
2018-12-22T19:20:51.618Z,98.62
2018-12-22T19:23:55.119Z,98.21
2018-12-22T19:26:58.726Z,98.25
2018-12-22T19:30:02.538Z,98.09
2018-12-22T19:33:06.368Z,97.91
2018-12-22T19:36:09.913Z,98.67
2018-12-22T19:39:13.755Z,98.31
2018-12-22T19:42:17.291Z,98.40
2018-12-22T19:45:21.027Z,97.83
2018-12-22T19:48:24.652Z,98.33
2018-12-22T19:51:28.366Z,98.69
2018-12-22T19:54:32.286Z,98.85
2018-12-22T19:57:35.673Z,98.81
2018-12-22T20:00:39.289Z,97.82
2018-12-22T20:03:42.777Z,97.61
2018-12-22T20:06:46.463Z,96.77
2018-12-22T20:09:49.861Z,95.21
2018-12-22T20:12:53.477Z,91.69
2018-12-22T20:15:57.135Z,91.66
2018-12-22T20:19:00.616Z,92.34
2018-12-22T20:22:04.124Z,92.55
2018-12-22T20:25:07.713Z,91.57
2018-12-22T20:28:11.662Z,89.66
2018-12-22T20:31:15.223Z,87.44
2018-12-22T20:34:18.865Z,87.11
2018-12-22T20:37:22.607Z,87.20
2018-12-22T20:40:26.214Z,87.62
2018-12-22T20:43:29.945Z,89.47
2018-12-22T20:46:33.478Z,90.90
2018-12-22T20:49:37.063Z,91.17
2018-12-22T20:52:40.556Z,92.40
2018-12-22T20:55:44.434Z,93.84
2018-12-22T20:58:47.764Z,95.64
2018-12-22T21:01:51.404Z,96.42
2018-12-22T21:04:55.046Z,97.40
2018-12-22T21:07:58.592Z,98.02
2018-12-22T21:11:02.104Z,98.03
2018-12-22T21:14:05.717Z,98.86
2018-12-22T21:17:09.296Z,99.57
2018-12-22T21:20:12.783Z,99.38
2018-12-22T21:23:16.296Z,100.00
2018-12-22T21:26:19.763Z,99.93
2018-12-22T21:29:23.417Z,99.68
2018-12-22T21:32:27.544Z,100.00
2018-12-22T21:35:31.456Z,99.79
2018-12-22T21:38:34.977Z,99.76
2018-12-22T21:41:38.435Z,98.57
2018-12-22T21:44:41.850Z,98.55
2018-12-22T21:47:45.539Z,98.05
2018-12-22T21:50:48.954Z,97.30
2018-12-22T21:53:52.467Z,96.06
2018-12-22T21:56:56.070Z,94.64
2018-12-22T21:59:59.586Z,94.65
2018-12-22T22:03:03.365Z,93.53
2018-12-22T22:06:06.780Z,92.53
2018-12-22T22:09:10.286Z,90.90
2018-12-22T22:12:13.913Z,90.17
2018-12-22T22:15:18.109Z,90.15
2018-12-22T22:18:21.506Z,90.07
2018-12-22T22:21:25.002Z,90.11
2018-12-22T22:24:28.502Z,90.62
2018-12-22T22:27:32.017Z,89.43
2018-12-22T22:30:35.440Z,89.90
2018-12-22T22:33:39.016Z,89.74
2018-12-22T22:36:42.630Z,88.66
2018-12-22T22:39:46.034Z,88.78
2018-12-22T22:42:49.637Z,87.87
2018-12-22T22:45:53.359Z,86.50
2018-12-22T22:48:56.850Z,85.16
2018-12-22T22:52:00.645Z,85.04
2018-12-22T22:55:04.456Z,83.69
2018-12-22T22:58:07.950Z,83.42
2018-12-22T23:01:11.538Z,82.30
2018-12-22T23:04:17.213Z,82.77
2018-12-22T23:07:20.633Z,82.67
2018-12-22T23:10:25.569Z,82.65
2018-12-22T23:13:29.128Z,82.99
2018-12-22T23:16:33.238Z,83.40
2018-12-22T23:19:36.833Z,83.48
2018-12-22T23:22:42.835Z,83.67
2018-12-22T23:25:46.470Z,84.36
2018-12-22T23:28:51.301Z,84.57
2018-12-22T23:31:55.087Z,85.14
2018-12-22T23:35:03.124Z,85.68
2018-12-22T23:38:05.768Z,85.56
2018-12-22T23:41:09.333Z,85.82
2018-12-22T23:44:12.838Z,86.32
2018-12-22T23:47:16.412Z,87.23
2018-12-22T23:50:20.042Z,88.30
2018-12-22T23:53:23.602Z,89.34
2018-12-22T23:56:27.046Z,90.13
2018-12-22T23:59:30.520Z,91.05
